sensor_id;sensor_type;location;lat;lon;timestamp;pressure;altitude;pressure_sealevel;temperature;humidity
13765;BME280;6953;48.810;9.204;2023-06-22T00:00:48;98491.34;;;21.84;100.00
13765;BME280;6953;48.810;9.204;2023-06-22T00:03:13;98748.81;;;23.22;100.00
13765;BME280;6953;48.810;9.204;2023-06-22T00:05:39;98724.34;;;23.17;100.00
13765;BME280;6953;48.810;9.204;2023-06-22T00:08:04;98707.78;;;22.97;100.00
13765;BME280;6953;48.810;9.204;2023-06-22T00:10:30;98732.47;;;23.08;100.00
13765;BME280;6953;48.810;9.204;2023-06-22T00:12:55;98708.09;;;22.94;100.00
13765;BME280;6953;48.810;9.204;2023-06-22T00:15:20;98730.06;;;23.05;100.00
13765;BME280;6953;48.810;9.204;2023-06-22T00:17:46;98718.47;;;22.97;100.00
13765;BME280;6953;48.810;9.204;2023-06-22T00:20:11;98721.16;;;22.97;100.00
13765;BME280;6953;48.810;9.204;2023-06-22T00:22:37;98718.97;;;22.92;100.00
13765;BME280;6953;48.810;9.204;2023-06-22T00:25:06;98702.88;;;22.67;100.00
13765;BME280;6953;48.810;9.204;2023-06-22T00:27:32;98562.47;;;21.85;100.00
13765;BME280;6953;48.810;9.204;2023-06-22T00:29:57;98745.72;;;22.92;100.00
13765;BME280;6953;48.810;9.204;2023-06-22T00:32:23;98730.97;;;22.88;100.00
13765;BME280;6953;48.810;9.204;2023-06-22T00:34:48;98733.44;;;22.82;100.00
13765;BME280;6953;48.810;9.204;2023-06-22T00:37:14;98709.06;;;22.67;100.00
13765;BME280;6953;48.810;9.204;2023-06-22T00:39:39;98719.47;;;22.70;100.00
13765;BME280;6953;48.810;9.204;2023-06-22T00:42:04;98721.63;;;22.67;100.00
13765;BME280;6953;48.810;9.204;2023-06-22T00:44:30;98713.72;;;22.65;100.00
13765;BME280;6953;48.810;9.204;2023-06-22T00:46:55;98502.72;;;21.34;100.00
13765;BME280;6953;48.810;9.204;2023-06-22T00:49:21;98694.75;;;22.33;100.00
13765;BME280;6953;48.810;9.204;2023-06-22T00:51:46;98721.06;;;22.63;100.00
13765;BME280;6953;48.810;9.204;2023-06-22T00:54:13;98489.75;;;21.21;100.00
13765;BME280;6953;48.810;9.204;2023-06-22T00:56:40;98728.06;;;22.56;100.00
13765;BME280;6953;48.810;9.204;2023-06-22T00:59:06;98756.41;;;22.67;100.00
13765;BME280;6953;48.810;9.204;2023-06-22T01:01:31;98748.16;;;22.60;100.00
13765;BME280;6953;48.810;9.204;2023-06-22T01:03:59;98518.50;;;21.27;100.00
13765;BME280;6953;48.810;9.204;2023-06-22T01:06:35;98791.91;;;22.77;100.00
13765;BME280;6953;48.810;9.204;2023-06-22T01:09:22;98671.88;;;22.21;100.00
13765;BME280;6953;48.810;9.204;2023-06-22T01:12:09;98798.91;;;22.70;100.00
13765;BME280;6953;48.810;9.204;2023-06-22T01:14:42;98767.09;;;22.49;100.00
13765;BME280;6953;48.810;9.204;2023-06-22T01:17:11;98756.53;;;22.65;100.00
13765;BME280;6953;48.810;9.204;2023-06-22T01:19:50;98774.13;;;22.68;100.00
13765;BME280;6953;48.810;9.204;2023-06-22T01:22:23;98587.84;;;21.54;100.00
13765;BME280;6953;48.810;9.204;2023-06-22T01:25:09;98777.72;;;22.59;100.00
13765;BME280;6953;48.810;9.204;2023-06-22T01:30:19;98742.50;;;22.46;100.00
13765;BME280;6953;48.810;9.204;2023-06-22T01:32:45;98685.63;;;22.09;100.00
13765;BME280;6953;48.810;9.204;2023-06-22T01:35:13;98738.50;;;22.32;100.00
13765;BME280;6953;48.810;9.204;2023-06-22T01:37:39;98736.16;;;22.02;100.00
13765;BME280;6953;48.810;9.204;2023-06-22T01:40:05;98796.47;;;22.32;100.00
13765;BME280;6953;48.810;9.204;2023-06-22T01:42:32;98782.56;;;22.28;100.00
13765;BME280;6953;48.810;9.204;2023-06-22T01:44:58;98707.44;;;22.04;100.00
13765;BME280;6953;48.810;9.204;2023-06-22T01:47:25;98756.97;;;22.26;100.00
13765;BME280;6953;48.810;9.204;2023-06-22T01:49:50;98757.28;;;22.23;100.00
13765;BME280;6953;48.810;9.204;2023-06-22T01:52:19;98704.25;;;22.01;100.00
13765;BME280;6953;48.810;9.204;2023-06-22T01:54:46;98522.13;;;20.82;100.00
13765;BME280;6953;48.810;9.204;2023-06-22T01:57:12;98591.91;;;21.14;100.00
13765;BME280;6953;48.810;9.204;2023-06-22T01:59:47;98770.72;;;22.13;100.00
13765;BME280;6953;48.810;9.204;2023-06-22T02:02:15;98706.25;;;21.72;100.00
13765;BME280;6953;48.810;9.204;2023-06-22T02:04:51;98769.09;;;22.03;100.00
13765;BME280;6953;48.810;9.204;2023-06-22T02:07:21;98699.63;;;21.49;100.00
13765;BME280;6953;48.810;9.204;2023-06-22T02:09:51;98774.25;;;21.87;100.00
13765;BME280;6953;48.810;9.204;2023-06-22T02:12:21;98789.47;;;21.77;100.00
13765;BME280;6953;48.810;9.204;2023-06-22T02:14:48;98561.69;;;20.50;100.00
13765;BME280;6953;48.810;9.204;2023-06-22T02:17:13;98537.06;;;20.29;100.00
13765;BME280;6953;48.810;9.204;2023-06-22T02:19:42;98770.69;;;21.69;100.00
13765;BME280;6953;48.810;9.204;2023-06-22T02:22:07;98767.44;;;21.66;100.00
13765;BME280;6953;48.810;9.204;2023-06-22T02:24:33;98766.22;;;21.60;100.00
13765;BME280;6953;48.810;9.204;2023-06-22T02:26:59;98750.19;;;21.51;100.00
13765;BME280;6953;48.810;9.204;2023-06-22T02:29:25;98541.84;;;20.26;100.00
13765;BME280;6953;48.810;9.204;2023-06-22T02:31:52;98790.25;;;21.60;100.00
13765;BME280;6953;48.810;9.204;2023-06-22T02:34:17;98761.88;;;21.59;100.00
13765;BME280;6953;48.810;9.204;2023-06-22T02:36:47;98475.69;;;19.93;100.00
13765;BME280;6953;48.810;9.204;2023-06-22T02:39:23;98752.28;;;21.57;100.00
13765;BME280;6953;48.810;9.204;2023-06-22T02:41:50;98759.19;;;21.50;100.00
13765;BME280;6953;48.810;9.204;2023-06-22T02:44:16;98741.00;;;21.36;100.00
13765;BME280;6953;48.810;9.204;2023-06-22T02:46:42;98742.97;;;21.34;100.00
13765;BME280;6953;48.810;9.204;2023-06-22T02:49:07;98756.84;;;21.37;100.00
13765;BME280;6953;48.810;9.204;2023-06-22T02:51:33;98756.84;;;21.37;100.00
13765;BME280;6953;48.810;9.204;2023-06-22T02:53:59;98744.78;;;21.33;100.00
13765;BME280;6953;48.810;9.204;2023-06-22T02:56:25;98497.19;;;19.73;100.00
13765;BME280;6953;48.810;9.204;2023-06-22T02:58:51;98517.94;;;19.97;100.00
13765;BME280;6953;48.810;9.204;2023-06-22T03:01:16;98756.19;;;21.26;100.00
13765;BME280;6953;48.810;9.204;2023-06-22T03:03:42;98649.34;;;20.72;100.00
13765;BME280;6953;48.810;9.204;2023-06-22T03:06:07;98731.47;;;21.24;100.00
13765;BME280;6953;48.810;9.204;2023-06-22T03:08:32;98734.31;;;21.22;100.00
13765;BME280;6953;48.810;9.204;2023-06-22T03:10:58;98497.19;;;19.82;100.00
13765;BME280;6953;48.810;9.204;2023-06-22T03:13:23;98724.63;;;21.12;100.00
13765;BME280;6953;48.810;9.204;2023-06-22T03:15:49;98726.16;;;21.14;100.00
13765;BME280;6953;48.810;9.204;2023-06-22T03:18:14;98653.53;;;20.65;100.00
13765;BME280;6953;48.810;9.204;2023-06-22T03:20:41;98732.78;;;21.10;100.00
13765;BME280;6953;48.810;9.204;2023-06-22T03:23:06;98557.88;;;20.07;100.00
13765;BME280;6953;48.810;9.204;2023-06-22T03:25:31;98454.19;;;19.49;100.00
13765;BME280;6953;48.810;9.204;2023-06-22T03:27:58;98756.25;;;21.07;100.00
13765;BME280;6953;48.810;9.204;2023-06-22T03:30:23;98782.94;;;21.07;100.00
13765;BME280;6953;48.810;9.204;2023-06-22T03:32:49;98485.84;;;19.61;100.00
13765;BME280;6953;48.810;9.204;2023-06-22T03:35:14;98721.03;;;21.03;100.00
13765;BME280;6953;48.810;9.204;2023-06-22T03:37:39;98490.59;;;19.67;100.00
13765;BME280;6953;48.810;9.204;2023-06-22T03:40:05;98458.66;;;19.48;100.00
13765;BME280;6953;48.810;9.204;2023-06-22T03:42:31;98494.66;;;19.71;100.00
13765;BME280;6953;48.810;9.204;2023-06-22T03:44:56;98723.78;;;21.11;100.00
13765;BME280;6953;48.810;9.204;2023-06-22T03:47:22;98649.47;;;20.71;100.00
13765;BME280;6953;48.810;9.204;2023-06-22T03:49:47;98716.09;;;21.08;100.00
13765;BME280;6953;48.810;9.204;2023-06-22T03:52:12;98694.34;;;21.03;100.00
13765;BME280;6953;48.810;9.204;2023-06-22T03:54:38;98718.41;;;21.21;100.00
13765;BME280;6953;48.810;9.204;2023-06-22T03:57:03;98707.59;;;21.22;100.00
13765;BME280;6953;48.810;9.204;2023-06-22T03:59:29;98500.13;;;19.98;100.00
13765;BME280;6953;48.810;9.204;2023-06-22T04:01:54;98442.97;;;19.74;100.00
13765;BME280;6953;48.810;9.204;2023-06-22T04:04:20;98713.69;;;21.42;100.00
13765;BME280;6953;48.810;9.204;2023-06-22T04:06:45;98704.84;;;21.41;100.00
13765;BME280;6953;48.810;9.204;2023-06-22T04:09:10;98499.91;;;20.28;100.00
13765;BME280;6953;48.810;9.204;2023-06-22T04:11:36;98714.31;;;21.63;100.00
13765;BME280;6953;48.810;9.204;2023-06-22T04:14:01;98719.72;;;21.80;100.00
13765;BME280;6953;48.810;9.204;2023-06-22T04:16:26;98663.28;;;21.66;100.00
13765;BME280;6953;48.810;9.204;2023-06-22T04:18:52;98587.84;;;21.37;100.00
13765;BME280;6953;48.810;9.204;2023-06-22T04:21:17;98703.28;;;22.19;100.00
13765;BME280;6953;48.810;9.204;2023-06-22T04:23:44;98688.97;;;22.28;100.00
13765;BME280;6953;48.810;9.204;2023-06-22T04:26:11;98432.06;;;20.94;100.00
13765;BME280;6953;48.810;9.204;2023-06-22T04:28:36;98691.50;;;22.65;100.00
13765;BME280;6953;48.810;9.204;2023-06-22T04:31:02;98658.91;;;22.69;100.00
13765;BME280;6953;48.810;9.204;2023-06-22T04:33:28;98701.72;;;23.12;100.00
13765;BME280;6953;48.810;9.204;2023-06-22T04:35:57;98695.31;;;23.30;100.00
13765;BME280;6953;48.810;9.204;2023-06-22T04:38:23;98696.75;;;23.50;100.00
13765;BME280;6953;48.810;9.204;2023-06-22T04:40:49;98681.72;;;23.65;100.00
13765;BME280;6953;48.810;9.204;2023-06-22T04:43:15;98697.41;;;23.94;100.00
13765;BME280;6953;48.810;9.204;2023-06-22T04:45:40;98585.22;;;23.49;99.87
13765;BME280;6953;48.810;9.204;2023-06-22T04:48:06;98638.63;;;24.08;98.81
13765;BME280;6953;48.810;9.204;2023-06-22T04:50:31;98711.28;;;24.54;96.96
13765;BME280;6953;48.810;9.204;2023-06-22T04:52:57;98576.78;;;24.10;95.59
13765;BME280;6953;48.810;9.204;2023-06-22T04:55:23;98672.81;;;25.02;93.91
13765;BME280;6953;48.810;9.204;2023-06-22T04:57:50;98665.06;;;25.23;91.97
13765;BME280;6953;48.810;9.204;2023-06-22T05:00:20;98673.03;;;25.54;89.98
13765;BME280;6953;48.810;9.204;2023-06-22T05:02:47;98481.38;;;24.47;88.74
13765;BME280;6953;48.810;9.204;2023-06-22T05:05:13;98475.28;;;24.99;86.15
13765;BME280;6953;48.810;9.204;2023-06-22T05:07:51;98665.16;;;26.58;85.07
13765;BME280;6953;48.810;9.204;2023-06-22T05:10:19;98668.97;;;27.01;83.04
13765;BME280;6953;48.810;9.204;2023-06-22T05:12:45;98666.97;;;27.46;79.61
13765;BME280;6953;48.810;9.204;2023-06-22T05:15:11;98665.94;;;27.76;78.08
13765;BME280;6953;48.810;9.204;2023-06-22T05:17:36;98658.75;;;27.97;76.36
13765;BME280;6953;48.810;9.204;2023-06-22T05:20:06;98522.44;;;27.45;74.27
13765;BME280;6953;48.810;9.204;2023-06-22T05:22:32;98667.88;;;28.53;72.50
13765;BME280;6953;48.810;9.204;2023-06-22T05:24:57;98659.91;;;28.72;70.68
13765;BME280;6953;48.810;9.204;2023-06-22T05:27:22;98507.56;;;28.12;68.86
13765;BME280;6953;48.810;9.204;2023-06-22T05:29:48;98652.91;;;29.32;67.69
13765;BME280;6953;48.810;9.204;2023-06-22T05:32:13;98660.97;;;29.53;66.96
13765;BME280;6953;48.810;9.204;2023-06-22T05:34:38;98657.31;;;29.80;65.32
13765;BME280;6953;48.810;9.204;2023-06-22T05:37:04;98632.34;;;29.78;63.80
13765;BME280;6953;48.810;9.204;2023-06-22T05:39:29;98672.03;;;30.11;63.46
13765;BME280;6953;48.810;9.204;2023-06-22T05:41:55;98594.38;;;30.05;62.56
13765;BME280;6953;48.810;9.204;2023-06-22T05:44:20;98648.00;;;30.62;61.20
13765;BME280;6953;48.810;9.204;2023-06-22T05:46:45;98652.75;;;30.98;59.54
13765;BME280;6953;48.810;9.204;2023-06-22T05:49:12;98487.13;;;30.17;58.52
13765;BME280;6953;48.810;9.204;2023-06-22T05:51:39;98666.75;;;31.28;58.57
13765;BME280;6953;48.810;9.204;2023-06-22T05:54:04;98617.28;;;31.32;57.56
13765;BME280;6953;48.810;9.204;2023-06-22T05:56:29;98637.03;;;31.65;57.01
13765;BME280;6953;48.810;9.204;2023-06-22T05:58:55;98521.53;;;31.25;55.71
13765;BME280;6953;48.810;9.204;2023-06-22T06:01:20;98621.06;;;31.88;55.40
13765;BME280;6953;48.810;9.204;2023-06-22T06:03:46;98641.56;;;31.78;55.11
13765;BME280;6953;48.810;9.204;2023-06-22T06:06:11;98647.38;;;31.18;56.64
13765;BME280;6953;48.810;9.204;2023-06-22T06:08:38;98644.63;;;30.47;59.31
13765;BME280;6953;48.810;9.204;2023-06-22T06:11:03;98627.38;;;29.88;61.25
13765;BME280;6953;48.810;9.204;2023-06-22T06:13:29;98640.25;;;29.79;61.86
13765;BME280;6953;48.810;9.204;2023-06-22T06:15:56;98637.25;;;29.55;63.43
13765;BME280;6953;48.810;9.204;2023-06-22T06:18:21;98558.78;;;29.08;63.48
13765;BME280;6953;48.810;9.204;2023-06-22T06:20:47;98568.25;;;29.38;63.35
13765;BME280;6953;48.810;9.204;2023-06-22T06:23:12;98650.84;;;30.34;61.40
13765;BME280;6953;48.810;9.204;2023-06-22T06:25:37;98636.13;;;31.14;59.11
13765;BME280;6953;48.810;9.204;2023-06-22T06:28:03;98634.16;;;31.97;56.01
13765;BME280;6953;48.810;9.204;2023-06-22T06:30:28;98650.72;;;32.64;52.98
13765;BME280;6953;48.810;9.204;2023-06-22T06:32:53;98644.94;;;33.45;50.63
13765;BME280;6953;48.810;9.204;2023-06-22T06:35:19;98648.63;;;34.22;49.07
13765;BME280;6953;48.810;9.204;2023-06-22T06:37:47;98489.22;;;34.02;45.59
13765;BME280;6953;48.810;9.204;2023-06-22T06:40:13;98645.44;;;35.64;43.54
13765;BME280;6953;48.810;9.204;2023-06-22T06:42:41;98521.66;;;35.25;42.73
13765;BME280;6953;48.810;9.204;2023-06-22T06:45:18;98651.63;;;36.38;40.64
13765;BME280;6953;48.810;9.204;2023-06-22T06:47:43;98654.88;;;36.52;39.75
13765;BME280;6953;48.810;9.204;2023-06-22T06:50:10;98659.34;;;36.86;38.67
13765;BME280;6953;48.810;9.204;2023-06-22T06:52:36;98620.22;;;37.02;37.59
13765;BME280;6953;48.810;9.204;2023-06-22T06:55:01;98667.81;;;37.71;35.68
13765;BME280;6953;48.810;9.204;2023-06-22T06:57:27;98654.75;;;38.21;34.84
13765;BME280;6953;48.810;9.204;2023-06-22T06:59:54;98564.13;;;38.06;34.18
13765;BME280;6953;48.810;9.204;2023-06-22T07:02:20;98543.16;;;38.48;32.96
13765;BME280;6953;48.810;9.204;2023-06-22T07:04:46;98486.41;;;38.54;31.71
13765;BME280;6953;48.810;9.204;2023-06-22T07:07:11;98648.38;;;39.63;31.27
13765;BME280;6953;48.810;9.204;2023-06-22T07:09:37;98658.94;;;39.85;31.25
13765;BME280;6953;48.810;9.204;2023-06-22T07:12:02;98543.09;;;39.57;30.63
13765;BME280;6953;48.810;9.204;2023-06-22T07:14:28;98652.47;;;40.06;29.68
13765;BME280;6953;48.810;9.204;2023-06-22T07:16:53;98635.41;;;39.12;31.24
13765;BME280;6953;48.810;9.204;2023-06-22T07:19:24;98535.06;;;38.99;30.10
13765;BME280;6953;48.810;9.204;2023-06-22T07:21:50;98621.41;;;39.60;30.72
13765;BME280;6953;48.810;9.204;2023-06-22T07:24:16;98632.38;;;40.06;29.78
13765;BME280;6953;48.810;9.204;2023-06-22T07:26:41;98574.38;;;40.27;28.68
13765;BME280;6953;48.810;9.204;2023-06-22T07:29:10;98448.03;;;39.91;28.22
13765;BME280;6953;48.810;9.204;2023-06-22T07:31:36;98490.44;;;40.10;28.07
13765;BME280;6953;48.810;9.204;2023-06-22T07:34:01;98612.19;;;40.82;28.82
13765;BME280;6953;48.810;9.204;2023-06-22T07:36:27;98603.91;;;41.11;27.99
13765;BME280;6953;48.810;9.204;2023-06-22T07:38:55;98633.94;;;41.08;27.64
13765;BME280;6953;48.810;9.204;2023-06-22T07:41:20;98597.03;;;40.54;28.75
13765;BME280;6953;48.810;9.204;2023-06-22T07:43:46;98546.63;;;40.69;28.11
13765;BME280;6953;48.810;9.204;2023-06-22T07:46:11;98570.47;;;41.53;26.71
13765;BME280;6953;48.810;9.204;2023-06-22T07:48:37;98588.59;;;41.79;27.16
13765;BME280;6953;48.810;9.204;2023-06-22T07:51:03;98582.81;;;42.38;26.18
13765;BME280;6953;48.810;9.204;2023-06-22T07:53:28;98581.00;;;42.91;25.15
13765;BME280;6953;48.810;9.204;2023-06-22T07:55:53;98566.50;;;42.70;24.72
13765;BME280;6953;48.810;9.204;2023-06-22T07:58:19;98440.81;;;42.11;24.33
13765;BME280;6953;48.810;9.204;2023-06-22T08:00:46;98540.69;;;43.13;24.16
13765;BME280;6953;48.810;9.204;2023-06-22T08:03:13;98565.16;;;43.53;23.96
13765;BME280;6953;48.810;9.204;2023-06-22T08:05:38;98575.69;;;42.99;24.22
13765;BME280;6953;48.810;9.204;2023-06-22T08:08:04;98573.72;;;42.66;24.53
13765;BME280;6953;48.810;9.204;2023-06-22T08:10:29;98585.19;;;43.17;24.37
13765;BME280;6953;48.810;9.204;2023-06-22T08:12:54;98428.63;;;43.02;23.16
13765;BME280;6953;48.810;9.204;2023-06-22T08:15:20;98609.66;;;44.95;21.86
13765;BME280;6953;48.810;9.204;2023-06-22T08:17:47;98628.75;;;45.15;21.42
13765;BME280;6953;48.810;9.204;2023-06-22T08:20:12;98620.22;;;44.93;21.56
13765;BME280;6953;48.810;9.204;2023-06-22T08:22:38;98576.97;;;44.79;21.28
13765;BME280;6953;48.810;9.204;2023-06-22T08:25:04;98545.81;;;45.00;21.15
13765;BME280;6953;48.810;9.204;2023-06-22T08:27:30;98620.28;;;44.15;22.47
13765;BME280;6953;48.810;9.204;2023-06-22T08:29:59;98618.63;;;42.43;24.36
13765;BME280;6953;48.810;9.204;2023-06-22T08:32:29;98611.91;;;40.93;26.63
13765;BME280;6953;48.810;9.204;2023-06-22T08:34:56;98604.22;;;39.89;28.16
13765;BME280;6953;48.810;9.204;2023-06-22T08:37:22;98422.03;;;38.30;29.12
13765;BME280;6953;48.810;9.204;2023-06-22T08:39:55;98611.88;;;38.94;29.86
13765;BME280;6953;48.810;9.204;2023-06-22T08:42:21;98626.03;;;38.76;30.32
13765;BME280;6953;48.810;9.204;2023-06-22T08:44:46;98614.44;;;38.43;30.98
13765;BME280;6953;48.810;9.204;2023-06-22T08:47:11;98603.06;;;38.61;30.62
13765;BME280;6953;48.810;9.204;2023-06-22T08:49:37;98601.41;;;39.23;30.34
13765;BME280;6953;48.810;9.204;2023-06-22T08:52:02;98420.38;;;39.16;29.42
13765;BME280;6953;48.810;9.204;2023-06-22T08:54:27;98603.41;;;42.03;26.39
13765;BME280;6953;48.810;9.204;2023-06-22T09:00:15;98554.59;;;41.00;26.71
13765;BME280;6953;48.810;9.204;2023-06-22T09:02:43;98593.75;;;42.05;25.96
13765;BME280;6953;48.810;9.204;2023-06-22T09:05:08;98448.03;;;40.95;25.92
13765;BME280;6953;48.810;9.204;2023-06-22T09:07:34;98556.94;;;41.66;25.41
13765;BME280;6953;48.810;9.204;2023-06-22T09:09:59;98603.81;;;41.51;26.48
13765;BME280;6953;48.810;9.204;2023-06-22T09:12:25;98596.19;;;41.08;27.52
13765;BME280;6953;48.810;9.204;2023-06-22T09:14:51;98588.13;;;41.52;26.83
13765;BME280;6953;48.810;9.204;2023-06-22T09:17:16;98585.44;;;40.57;27.70
13765;BME280;6953;48.810;9.204;2023-06-22T09:19:41;98595.09;;;39.27;29.68
13765;BME280;6953;48.810;9.204;2023-06-22T09:22:06;98595.84;;;38.50;30.40
13765;BME280;6953;48.810;9.204;2023-06-22T09:24:32;98604.63;;;38.78;30.01
13765;BME280;6953;48.810;9.204;2023-06-22T09:26:58;98565.66;;;40.95;26.10
13765;BME280;6953;48.810;9.204;2023-06-22T09:29:23;98433.03;;;42.80;23.85
13765;BME280;6953;48.810;9.204;2023-06-22T09:31:48;98618.25;;;45.57;21.85
13765;BME280;6953;48.810;9.204;2023-06-22T09:34:14;98557.91;;;46.74;19.93
13765;BME280;6953;48.810;9.204;2023-06-22T09:36:41;98604.56;;;47.90;18.91
13765;BME280;6953;48.810;9.204;2023-06-22T09:39:06;98615.00;;;48.57;18.15
13765;BME280;6953;48.810;9.204;2023-06-22T09:41:32;98476.81;;;48.39;17.22
13765;BME280;6953;48.810;9.204;2023-06-22T09:43:57;98597.50;;;49.45;16.62
13765;BME280;6953;48.810;9.204;2023-06-22T09:46:22;98591.06;;;49.61;16.94
13765;BME280;6953;48.810;9.204;2023-06-22T09:48:50;98598.91;;;49.68;17.21
13765;BME280;6953;48.810;9.204;2023-06-22T09:51:15;98559.03;;;50.16;16.19
13765;BME280;6953;48.810;9.204;2023-06-22T09:53:40;98549.78;;;50.24;16.52
13765;BME280;6953;48.810;9.204;2023-06-22T09:56:06;98475.47;;;48.11;18.06
13765;BME280;6953;48.810;9.204;2023-06-22T09:58:31;98559.03;;;46.95;19.22
13765;BME280;6953;48.810;9.204;2023-06-22T10:00:56;98540.72;;;46.01;20.65
13765;BME280;6953;48.810;9.204;2023-06-22T10:03:22;98537.34;;;45.91;19.87
13765;BME280;6953;48.810;9.204;2023-06-22T10:05:48;98535.50;;;46.13;19.91
13765;BME280;6953;48.810;9.204;2023-06-22T10:08:13;98381.78;;;46.40;19.04
13765;BME280;6953;48.810;9.204;2023-06-22T10:10:38;98377.66;;;45.23;19.91
13765;BME280;6953;48.810;9.204;2023-06-22T10:13:10;98361.72;;;43.28;21.89
13765;BME280;6953;48.810;9.204;2023-06-22T10:15:36;98505.44;;;42.77;23.59
13765;BME280;6953;48.810;9.204;2023-06-22T10:18:02;98493.97;;;41.83;25.10
13765;BME280;6953;48.810;9.204;2023-06-22T10:20:27;98517.34;;;41.37;25.41
13765;BME280;6953;48.810;9.204;2023-06-22T10:22:53;98448.81;;;41.01;25.79
13765;BME280;6953;48.810;9.204;2023-06-22T10:25:18;98454.84;;;42.19;24.35
13765;BME280;6953;48.810;9.204;2023-06-22T10:27:44;98476.38;;;43.31;23.00
13765;BME280;6953;48.810;9.204;2023-06-22T10:30:11;98495.56;;;43.69;22.64
13765;BME280;6953;48.810;9.204;2023-06-22T10:32:41;98496.41;;;43.65;22.53
13765;BME280;6953;48.810;9.204;2023-06-22T10:35:08;98498.91;;;43.85;22.96
13765;BME280;6953;48.810;9.204;2023-06-22T10:37:35;98332.31;;;43.51;22.37
13765;BME280;6953;48.810;9.204;2023-06-22T10:40:01;98445.81;;;44.97;21.92
13765;BME280;6953;48.810;9.204;2023-06-22T10:42:27;98486.72;;;46.43;20.66
13765;BME280;6953;48.810;9.204;2023-06-22T10:44:53;98498.22;;;47.41;19.66
13765;BME280;6953;48.810;9.204;2023-06-22T10:47:18;98491.50;;;48.82;18.41
13765;BME280;6953;48.810;9.204;2023-06-22T10:49:43;98499.22;;;49.68;17.72
13765;BME280;6953;48.810;9.204;2023-06-22T10:52:09;98360.66;;;47.80;18.64
13765;BME280;6953;48.810;9.204;2023-06-22T10:54:35;98479.03;;;47.78;18.75
13765;BME280;6953;48.810;9.204;2023-06-22T10:57:01;98447.06;;;47.11;19.21
13765;BME280;6953;48.810;9.204;2023-06-22T10:59:27;98486.09;;;46.24;19.88
13765;BME280;6953;48.810;9.204;2023-06-22T11:01:53;98284.50;;;43.50;21.88
13765;BME280;6953;48.810;9.204;2023-06-22T11:04:19;98438.53;;;43.31;23.63
13765;BME280;6953;48.810;9.204;2023-06-22T11:06:44;98446.69;;;42.66;24.46
13765;BME280;6953;48.810;9.204;2023-06-22T11:09:09;98466.22;;;42.46;25.33
13765;BME280;6953;48.810;9.204;2023-06-22T11:11:34;98439.91;;;42.20;25.68
13765;BME280;6953;48.810;9.204;2023-06-22T11:14:00;98391.63;;;41.41;25.46
13765;BME280;6953;48.810;9.204;2023-06-22T11:16:25;98432.78;;;41.23;26.89
13765;BME280;6953;48.810;9.204;2023-06-22T11:18:50;98443.09;;;40.68;27.57
13765;BME280;6953;48.810;9.204;2023-06-22T11:21:15;98440.94;;;40.15;28.15
13765;BME280;6953;48.810;9.204;2023-06-22T11:23:42;98419.16;;;39.69;28.68
13765;BME280;6953;48.810;9.204;2023-06-22T11:26:07;98264.63;;;38.36;29.47
13765;BME280;6953;48.810;9.204;2023-06-22T11:28:32;98442.44;;;39.41;30.24
13765;BME280;6953;48.810;9.204;2023-06-22T11:30:58;98382.84;;;38.85;30.01
13765;BME280;6953;48.810;9.204;2023-06-22T11:33:23;98253.06;;;37.82;30.52
13765;BME280;6953;48.810;9.204;2023-06-22T11:35:49;98382.81;;;38.75;30.59
13765;BME280;6953;48.810;9.204;2023-06-22T11:38:14;98435.59;;;39.49;29.90
13765;BME280;6953;48.810;9.204;2023-06-22T11:40:39;98397.88;;;39.29;29.72
13765;BME280;6953;48.810;9.204;2023-06-22T11:43:05;98445.88;;;40.33;29.13
13765;BME280;6953;48.810;9.204;2023-06-22T11:45:30;98260.59;;;40.77;26.41
13765;BME280;6953;48.810;9.204;2023-06-22T11:47:55;98434.34;;;42.25;25.64
13765;BME280;6953;48.810;9.204;2023-06-22T11:50:21;98438.16;;;42.01;26.13
13765;BME280;6953;48.810;9.204;2023-06-22T11:52:46;98429.84;;;42.06;25.34
13765;BME280;6953;48.810;9.204;2023-06-22T11:55:12;98207.41;;;40.77;25.60
13765;BME280;6953;48.810;9.204;2023-06-22T11:57:38;98370.09;;;41.48;25.93
13765;BME280;6953;48.810;9.204;2023-06-22T12:00:16;98425.59;;;41.27;26.32
13765;BME280;6953;48.810;9.204;2023-06-22T12:02:45;98428.72;;;41.00;27.25
13765;BME280;6953;48.810;9.204;2023-06-22T12:05:11;98384.28;;;40.39;27.52
13765;BME280;6953;48.810;9.204;2023-06-22T12:07:36;98445.88;;;40.53;28.09
13765;BME280;6953;48.810;9.204;2023-06-22T12:10:02;98420.59;;;40.01;28.19
13765;BME280;6953;48.810;9.204;2023-06-22T12:12:28;98437.03;;;39.71;29.47
13765;BME280;6953;48.810;9.204;2023-06-22T12:14:53;98438.66;;;39.62;29.52
13765;BME280;6953;48.810;9.204;2023-06-22T12:17:18;98321.13;;;38.88;29.48
13765;BME280;6953;48.810;9.204;2023-06-22T12:19:44;98427.78;;;39.16;30.15
13765;BME280;6953;48.810;9.204;2023-06-22T12:22:09;98282.88;;;38.20;30.30
13765;BME280;6953;48.810;9.204;2023-06-22T12:24:34;98358.81;;;38.56;30.49
13765;BME280;6953;48.810;9.204;2023-06-22T12:26:59;98094.16;;;37.05;30.31
13765;BME280;6953;48.810;9.204;2023-06-22T12:29:25;98409.31;;;39.01;30.00
13765;BME280;6953;48.810;9.204;2023-06-22T12:31:50;98401.19;;;39.31;29.89
13765;BME280;6953;48.810;9.204;2023-06-22T12:34:15;98421.53;;;39.35;29.87
13765;BME280;6953;48.810;9.204;2023-06-22T12:36:40;98456.75;;;38.97;30.34
13765;BME280;6953;48.810;9.204;2023-06-22T12:39:06;98434.81;;;38.56;31.34
13765;BME280;6953;48.810;9.204;2023-06-22T12:41:31;98445.09;;;38.02;32.81
13765;BME280;6953;48.810;9.204;2023-06-22T12:43:56;98418.97;;;37.42;32.68
13765;BME280;6953;48.810;9.204;2023-06-22T12:46:22;98364.84;;;36.63;33.97
13765;BME280;6953;48.810;9.204;2023-06-22T12:48:47;98400.88;;;36.55;34.54
13765;BME280;6953;48.810;9.204;2023-06-22T12:51:20;98399.03;;;36.61;34.14
13765;BME280;6953;48.810;9.204;2023-06-22T12:53:45;98466.53;;;36.93;33.51
13765;BME280;6953;48.810;9.204;2023-06-22T12:56:10;98470.81;;;36.89;33.12
13765;BME280;6953;48.810;9.204;2023-06-22T12:58:36;98472.09;;;36.82;33.45
13765;BME280;6953;48.810;9.204;2023-06-22T13:01:02;98476.31;;;36.73;34.40
13765;BME280;6953;48.810;9.204;2023-06-22T13:03:27;98467.13;;;36.62;35.31
13765;BME280;6953;48.810;9.204;2023-06-22T13:05:53;98445.38;;;36.18;37.18
13765;BME280;6953;48.810;9.204;2023-06-22T13:08:19;98456.72;;;36.27;36.94